Time;durP1;ratioP1;P1;durP2;ratioP2;P2;SDS_P1;SDS_P2;PMS_P1;PMS_P2;Temp;Humidity;BMP_temperature;BMP_pressure;BME280_temperature;BME280_humidity;BME280_pressure;Samples;Min_cycle;Max_cycle;Signal;HPM_P1;HPM_P2
2023/10/21 00:02:06;;;;;;;;;;;;;;;18.91;49.38;98785.16;5019651;28;19917;-96
2023/10/21 00:04:32;;;;;;;;;;;;;;;18.90;50.09;98788.22;5018869;28;19956;-93
2023/10/21 00:06:57;;;;;;;;;;;;;;;18.84;50.05;98789.59;5018443;28;19913;-96
2023/10/21 00:09:25;;;;;;;;;;;;;;;18.76;50.42;98794.78;5018011;28;20350;-96
2023/10/21 00:11:51;;;;;;;;;;;;;;;18.65;50.66;98788.13;5019327;28;20295;-96
2023/10/21 00:14:17;;;;;;;;;;;;;;;18.58;51.20;98796.88;5019222;28;19914;-96
2023/10/21 00:16:42;;;;;;;;;;;;;;;18.55;51.60;98794.00;5017762;28;19999;-93
2023/10/21 00:19:10;;;;;;;;;;;;;;;18.45;51.40;98789.78;5016866;28;20417;-93
2023/10/21 00:21:36;;;;;;;;;;;;;;;18.43;51.41;98792.06;5017659;28;19983;-93
2023/10/21 00:24:02;;;;;;;;;;;;;;;18.37;51.37;98790.66;5001207;28;20019;-94
2023/10/21 00:26:28;;;;;;;;;;;;;;;18.36;51.04;98789.88;5016573;28;19913;-92
2023/10/21 00:28:53;;;;;;;;;;;;;;;18.34;50.88;98781.25;5016815;28;19944;-94
2023/10/21 00:31:19;;;;;;;;;;;;;;;18.35;49.75;98787.47;5018211;28;19913;-94
2023/10/21 00:33:44;;;;;;;;;;;;;;;18.39;49.68;98791.13;5017096;28;19917;-93
2023/10/21 00:36:09;;;;;;;;;;;;;;;18.41;49.98;98788.03;5016493;28;20318;-94
2023/10/21 00:38:35;;;;;;;;;;;;;;;18.40;50.06;98784.53;5016888;28;19996;-94
2023/10/21 00:41:00;;;;;;;;;;;;;;;18.40;49.99;98781.00;5017348;28;19936;-94
2023/10/21 00:43:35;;;;;;;;;;;;;;;18.37;50.33;98786.00;5016576;28;19979;-93
2023/10/21 00:46:10;;;;;;;;;;;;;;;18.36;49.47;98778.97;5000712;28;19944;-93
2023/10/21 00:48:36;;;;;;;;;;;;;;;18.41;48.68;98788.88;5000296;28;20355;-95
2023/10/21 00:51:01;;;;;;;;;;;;;;;18.45;48.73;98783.53;5000131;28;20015;-92
2023/10/21 00:53:26;;;;;;;;;;;;;;;18.46;48.49;98774.22;5016562;28;20365;-93
2023/10/21 00:55:52;;;;;;;;;;;;;;;18.45;48.63;98787.06;5016659;28;19921;-94
2023/10/21 00:58:18;;;;;;;;;;;;;;;18.46;48.60;98779.69;5015704;28;19913;-94
2023/10/21 01:00:43;;;;;;;;;;;;;;;18.46;48.38;98779.69;5000094;28;20055;-95
2023/10/21 01:03:09;;;;;;;;;;;;;;;18.45;48.40;98778.88;5016228;28;19941;-94
2023/10/21 01:05:34;;;;;;;;;;;;;;;18.45;48.31;98784.34;5015629;28;20311;-93
2023/10/21 01:08:00;;;;;;;;;;;;;;;18.47;48.40;98781.25;5016286;28;19979;-93
2023/10/21 01:10:28;;;;;;;;;;;;;;;18.44;48.35;98782.72;5015169;28;20287;-93
2023/10/21 01:12:53;;;;;;;;;;;;;;;18.46;48.23;98782.41;5016365;28;20008;-94
2023/10/21 01:15:19;;;;;;;;;;;;;;;18.47;48.01;98779.34;5015762;28;20015;-95
2023/10/21 01:17:50;;;;;;;;;;;;;;;18.42;48.32;98776.81;5015602;28;20015;-94
2023/10/21 01:20:17;;;;;;;;;;;;;;;18.43;48.36;98786.59;5015672;28;19917;-93
2023/10/21 01:22:42;;;;;;;;;;;;;;;18.38;48.26;98779.41;4999546;28;20008;-93
2023/10/21 01:25:08;;;;;;;;;;;;;;;18.40;48.41;98783.75;5000505;28;20390;-92
2023/10/21 01:27:33;;;;;;;;;;;;;;;18.41;48.34;98782.59;5017080;28;19918;-93
2023/10/21 01:29:59;;;;;;;;;;;;;;;18.35;48.69;98785.53;5017338;28;19914;-94
2023/10/21 01:32:25;;;;;;;;;;;;;;;18.36;47.96;98778.97;5000463;28;19996;-94
2023/10/21 01:34:50;;;;;;;;;;;;;;;18.38;48.18;98782.13;5015671;28;20410;-94
2023/10/21 01:37:16;;;;;;;;;;;;;;;18.32;48.33;98779.97;5015906;28;19913;-94
2023/10/21 01:39:41;;;;;;;;;;;;;;;18.29;48.24;98780.63;5014936;28;19914;-94
2023/10/21 01:42:06;;;;;;;;;;;;;;;18.28;48.25;98781.75;5015902;28;19940;-95
2023/10/21 01:44:32;;;;;;;;;;;;;;;18.24;48.77;98784.38;5000083;28;20199;-94
2023/10/21 01:46:57;;;;;;;;;;;;;;;18.18;48.39;98781.03;5016383;28;19913;-95
2023/10/21 01:49:22;;;;;;;;;;;;;;;18.18;48.44;98783.78;5016270;28;19956;-95
2023/10/21 01:51:48;;;;;;;;;;;;;;;18.16;48.61;98790.69;5016804;28;19933;-93
2023/10/21 01:54:13;;;;;;;;;;;;;;;18.15;48.62;98781.69;5016376;28;19919;-96
2023/10/21 01:56:38;;;;;;;;;;;;;;;18.17;48.12;98789.53;5016171;28;19964;-94
2023/10/21 01:59:04;;;;;;;;;;;;;;;18.16;47.89;98787.97;5016260;28;19972;-95
2023/10/21 02:01:29;;;;;;;;;;;;;;;18.14;48.38;98787.50;5015350;28;19976;-93
2023/10/21 02:03:59;;;;;;;;;;;;;;;18.13;48.38;98785.88;5015322;28;19917;-94
2023/10/21 02:06:25;;;;;;;;;;;;;;;18.14;48.04;98798.41;5015180;28;19913;-94
2023/10/21 02:08:50;;;;;;;;;;;;;;;18.11;47.92;98793.59;4998742;28;19913;-94
2023/10/21 02:11:19;;;;;;;;;;;;;;;18.13;48.76;98788.63;5015479;28;19920;-94
2023/10/21 02:13:44;;;;;;;;;;;;;;;18.08;49.49;98791.56;4998768;28;19985;-93
2023/10/21 02:16:10;;;;;;;;;;;;;;;18.04;49.95;98796.06;5014831;28;20379;-95
2023/10/21 02:18:36;;;;;;;;;;;;;;;17.98;50.12;98793.53;5015201;28;19922;-94
2023/10/21 02:21:04;;;;;;;;;;;;;;;17.91;50.24;98790.56;5015144;28;19914;-93
2023/10/21 02:23:29;;;;;;;;;;;;;;;17.88;50.46;98793.13;5001881;28;19917;-94
2023/10/21 02:26:14;;;;;;;;;;;;;;;17.81;50.39;98799.09;5018832;28;20008;-95
2023/10/21 02:28:40;;;;;;;;;;;;;;;17.76;50.63;98800.06;4982390;28;19950;-94
2023/10/21 02:31:05;;;;;;;;;;;;;;;17.71;50.68;98789.38;4981948;28;19990;-94
2023/10/21 02:33:30;;;;;;;;;;;;;;;17.64;50.83;98794.53;4981621;28;20033;-95
2023/10/21 02:35:56;;;;;;;;;;;;;;;17.58;50.85;98793.94;4982265;28;19914;-93
2023/10/21 02:38:22;;;;;;;;;;;;;;;17.53;50.97;98794.09;4981812;28;19936;-93
2023/10/21 02:40:47;;;;;;;;;;;;;;;17.47;51.36;98795.44;4981478;28;19914;-95
2023/10/21 02:43:13;;;;;;;;;;;;;;;17.44;51.61;98795.28;4981670;28;19937;-94
2023/10/21 02:45:38;;;;;;;;;;;;;;;17.38;51.81;98797.41;4981505;28;19924;-93
2023/10/21 02:48:04;;;;;;;;;;;;;;;17.32;52.30;98796.00;4981598;28;19914;-93
2023/10/21 02:50:30;;;;;;;;;;;;;;;17.29;52.31;98810.25;4981167;28;19965;-94
2023/10/21 02:52:56;;;;;;;;;;;;;;;17.26;52.19;98805.47;4981464;28;19918;-91
2023/10/21 02:55:21;;;;;;;;;;;;;;;17.24;52.29;98808.50;4981016;28;20101;-94
2023/10/21 02:57:46;;;;;;;;;;;;;;;17.20;52.09;98806.75;4980455;28;19961;-93
2023/10/21 03:00:18;;;;;;;;;;;;;;;17.15;52.44;98815.91;5007016;28;19920;-94
2023/10/21 03:02:44;;;;;;;;;;;;;;;17.13;52.21;98812.72;5017672;28;19928;-94
2023/10/21 03:05:09;;;;;;;;;;;;;;;17.10;52.88;98808.72;5001021;28;19913;-92
2023/10/21 03:07:35;;;;;;;;;;;;;;;17.05;52.58;98806.16;5000642;28;19913;-94
2023/10/21 03:10:00;;;;;;;;;;;;;;;17.04;52.55;98812.75;5016753;28;20039;-94
2023/10/21 03:12:26;;;;;;;;;;;;;;;16.97;52.78;98809.72;5001105;28;19921;-94
2023/10/21 03:14:51;;;;;;;;;;;;;;;16.91;53.70;98808.28;5000815;28;19913;-94
2023/10/21 03:17:16;;;;;;;;;;;;;;;16.87;54.16;98810.06;5016150;28;19921;-94
2023/10/21 03:19:42;;;;;;;;;;;;;;;16.87;54.51;98820.94;5000357;28;19940;-94
2023/10/21 03:22:08;;;;;;;;;;;;;;;16.87;54.26;98818.22;5001202;28;19985;-94
2023/10/21 03:24:33;;;;;;;;;;;;;;;16.85;54.65;98815.84;5000805;28;20394;-92
2023/10/21 03:26:59;;;;;;;;;;;;;;;16.83;55.02;98818.09;5001579;28;19957;-94
2023/10/21 03:29:25;;;;;;;;;;;;;;;16.77;54.79;98817.41;5002882;28;19913;-94
2023/10/21 03:31:50;;;;;;;;;;;;;;;16.73;55.46;98827.34;5002323;28;20398;-95
2023/10/21 03:34:15;;;;;;;;;;;;;;;16.69;55.51;98823.66;5001277;28;19913;-93
2023/10/21 03:36:41;;;;;;;;;;;;;;;16.66;55.42;98818.88;5000856;28;19967;-94
2023/10/21 03:39:07;;;;;;;;;;;;;;;16.61;55.99;98829.13;5001016;28;19945;-93
2023/10/21 03:41:33;;;;;;;;;;;;;;;16.51;56.87;98822.09;5001039;28;20283;-93
2023/10/21 03:43:59;;;;;;;;;;;;;;;16.49;56.75;98825.13;5001285;28;19968;-94
2023/10/21 03:46:24;;;;;;;;;;;;;;;16.42;57.04;98816.66;5000470;28;19921;-93
2023/10/21 03:48:50;;;;;;;;;;;;;;;16.38;57.30;98817.63;5001043;28;19914;-93
2023/10/21 03:51:15;;;;;;;;;;;;;;;16.31;56.90;98818.09;5001709;28;20291;-93
2023/10/21 03:53:41;;;;;;;;;;;;;;;16.33;57.22;98818.56;5000420;28;19913;-93
2023/10/21 03:56:07;;;;;;;;;;;;;;;16.28;57.20;98814.13;5000503;28;20390;-94
2023/10/21 03:58:32;;;;;;;;;;;;;;;16.23;57.57;98813.47;5000336;28;19913;-93
2023/10/21 04:00:58;;;;;;;;;;;;;;;16.19;57.74;98813.31;4985217;28;19914;-94
2023/10/21 04:03:24;;;;;;;;;;;;;;;16.16;58.36;98805.81;5000032;28;19922;-93
2023/10/21 04:05:50;;;;;;;;;;;;;;;16.09;58.22;98809.00;4983650;28;19968;-94
2023/10/21 04:08:15;;;;;;;;;;;;;;;16.08;58.58;98807.41;4982895;28;19914;-91
2023/10/21 04:10:41;;;;;;;;;;;;;;;16.05;58.78;98807.25;5000057;28;19914;-91
2023/10/21 04:13:06;;;;;;;;;;;;;;;16.02;58.66;98811.41;4999482;28;19913;-93
2023/10/21 04:15:32;;;;;;;;;;;;;;;16.01;58.87;98809.00;4999656;28;19913;-93
2023/10/21 04:17:58;;;;;;;;;;;;;;;15.94;58.83;98812.97;5004950;28;19922;-93
2023/10/21 04:20:23;;;;;;;;;;;;;;;15.88;59.13;98825.13;5000264;28;20309;-92
2023/10/21 04:22:48;;;;;;;;;;;;;;;15.90;59.33;98833.75;5016195;28;19921;-93
2023/10/21 04:25:14;;;;;;;;;;;;;;;15.85;59.49;98831.16;5018996;28;19920;-92
2023/10/21 04:27:39;;;;;;;;;;;;;;;15.87;59.55;98842.50;5016941;28;19917;-91
2023/10/21 04:30:08;;;;;;;;;;;;;;;15.80;59.44;98833.25;5017119;28;19946;-93
2023/10/21 04:32:33;;;;;;;;;;;;;;;15.81;59.35;98837.53;5001317;28;19917;-93
2023/10/21 04:34:59;;;;;;;;;;;;;;;15.73;59.48;98845.38;5016621;28;19936;-93
2023/10/21 04:37:24;;;;;;;;;;;;;;;15.65;60.14;98853.47;5000049;28;20004;-94
2023/10/21 04:39:51;;;;;;;;;;;;;;;15.63;59.84;98856.47;5016401;28;19920;-93
2023/10/21 04:42:17;;;;;;;;;;;;;;;15.65;59.67;98853.47;4999945;28;19984;-93
2023/10/21 04:44:43;;;;;;;;;;;;;;;15.67;59.74;98853.94;5015878;28;19918;-92
2023/10/21 04:47:11;;;;;;;;;;;;;;;15.62;59.77;98864.94;5015469;28;19967;-94
2023/10/21 04:49:37;;;;;;;;;;;;;;;15.63;59.47;98869.25;5000516;28;20384;-92
2023/10/21 04:52:03;;;;;;;;;;;;;;;15.64;59.47;98868.13;5015822;28;20016;-92
2023/10/21 04:54:28;;;;;;;;;;;;;;;15.67;59.65;98871.03;5016630;28;19920;-92
2023/10/21 04:56:53;;;;;;;;;;;;;;;15.67;59.48;98875.66;5016219;28;20298;-93
2023/10/21 04:59:19;;;;;;;;;;;;;;;15.66;59.44;98879.47;5016360;28;19913;-93
2023/10/21 05:01:45;;;;;;;;;;;;;;;15.66;59.33;98885.69;5015915;28;19920;-93
2023/10/21 05:04:11;;;;;;;;;;;;;;;15.70;59.53;98883.16;5015460;28;19914;-93
2023/10/21 05:06:36;;;;;;;;;;;;;;;15.71;59.38;98888.28;5016540;28;19957;-93
2023/10/21 05:09:03;;;;;;;;;;;;;;;15.71;59.44;98888.28;5017350;28;19913;-92
2023/10/21 05:11:30;;;;;;;;;;;;;;;15.73;59.65;98888.00;5016102;28;19921;-93
2023/10/21 05:13:55;;;;;;;;;;;;;;;15.69;59.62;98906.78;5017313;28;20374;-94
2023/10/21 05:16:21;;;;;;;;;;;;;;;15.66;59.65;98904.69;4999862;28;19914;-93
2023/10/21 05:18:46;;;;;;;;;;;;;;;15.70;59.45;98900.22;5014943;28;20379;-93
2023/10/21 05:21:11;;;;;;;;;;;;;;;15.73;59.68;98912.44;5015548;28;19921;-93
2023/10/21 05:23:38;;;;;;;;;;;;;;;15.78;59.71;98911.47;5015327;28;19925;-93
2023/10/21 05:26:04;;;;;;;;;;;;;;;15.83;59.88;98920.25;5015622;28;19918;-93
2023/10/21 05:28:29;;;;;;;;;;;;;;;15.86;59.88;98916.16;5015570;28;19913;-92
2023/10/21 05:30:57;;;;;;;;;;;;;;;15.90;60.11;98922.53;4998726;28;20397;-93
2023/10/21 05:33:23;;;;;;;;;;;;;;;15.94;60.26;98924.31;5015711;28;19913;-93
2023/10/21 05:35:48;;;;;;;;;;;;;;;15.91;59.44;98922.22;5015777;28;19917;-94
2023/10/21 05:38:14;;;;;;;;;;;;;;;15.99;58.39;98928.00;5014995;28;20001;-92
2023/10/21 05:40:43;;;;;;;;;;;;;;;15.97;58.71;98933.72;5014547;28;19961;-93
2023/10/21 05:43:11;;;;;;;;;;;;;;;16.05;58.90;98934.88;4999581;28;19918;-93
2023/10/21 05:45:41;;;;;;;;;;;;;;;16.11;59.64;98931.69;5016419;28;19937;-93
2023/10/21 05:48:09;;;;;;;;;;;;;;;16.22;59.47;98937.63;4999632;28;19913;-93
2023/10/21 05:50:35;;;;;;;;;;;;;;;16.31;60.09;98932.22;4999621;28;20426;-93
2023/10/21 05:53:00;;;;;;;;;;;;;;;16.34;59.97;98935.09;4999648;28;19987;-94
2023/10/21 05:55:26;;;;;;;;;;;;;;;16.41;59.58;98934.63;5016721;28;19920;-93
2023/10/21 05:57:51;;;;;;;;;;;;;;;16.48;59.02;98934.97;5018418;28;20363;-94
2023/10/21 06:00:17;;;;;;;;;;;;;;;16.51;59.34;98944.41;5018212;28;19913;-93
2023/10/21 06:02:42;;;;;;;;;;;;;;;16.60;59.32;98947.09;5019723;28;20102;-92
2023/10/21 06:05:08;;;;;;;;;;;;;;;16.66;59.00;98946.63;5018447;28;19913;-93
2023/10/21 06:07:33;;;;;;;;;;;;;;;16.79;58.45;98950.34;5001608;28;19971;-95
2023/10/21 06:10:01;;;;;;;;;;;;;;;16.93;57.96;98952.91;5018435;28;20008;-92
2023/10/21 06:12:29;;;;;;;;;;;;;;;17.08;55.34;98951.59;5018171;28;19921;-93
2023/10/21 06:14:55;;;;;;;;;;;;;;;17.28;51.89;98958.31;5020756;28;19920;-93
2023/10/21 06:17:20;;;;;;;;;;;;;;;17.48;51.48;98956.84;5019170;28;20379;-93
2023/10/21 06:19:46;;;;;;;;;;;;;;;17.63;51.70;98963.66;5020249;28;19979;-93
2023/10/21 06:22:13;;;;;;;;;;;;;;;17.77;49.52;98961.53;5024460;28;19925;-93
2023/10/21 06:27:41;;;;;;;;;;;;;;;18.21;49.72;98964.88;5025117;28;19946;-95
2023/10/21 06:30:10;;;;;;;;;;;;;;;18.34;48.64;98961.13;5027820;28;19901;-96
2023/10/21 06:32:43;;;;;;;;;;;;;;;18.50;49.14;98961.34;5011128;28;19921;-93
2023/10/21 06:35:11;;;;;;;;;;;;;;;18.57;49.27;98945.25;5007893;28;19957;-94
2023/10/21 06:37:51;;;;;;;;;;;;;;;18.75;48.94;98956.81;5006509;28;20401;-94
2023/10/21 06:40:17;;;;;;;;;;;;;;;18.92;47.50;98955.09;5008585;28;19913;-94
2023/10/21 06:42:42;;;;;;;;;;;;;;;19.05;47.24;98959.50;5006608;28;19924;-96
2023/10/21 06:45:10;;;;;;;;;;;;;;;19.22;46.36;98961.25;5022122;28;20386;-96
2023/10/21 06:47:36;;;;;;;;;;;;;;;19.37;45.54;98960.63;5004058;28;19979;-94
2023/10/21 06:50:02;;;;;;;;;;;;;;;19.50;45.34;98963.38;5019497;28;19967;-94
2023/10/21 06:52:28;;;;;;;;;;;;;;;19.65;44.30;98964.66;5022840;28;19913;-94
2023/10/21 06:54:53;;;;;;;;;;;;;;;19.77;43.46;98965.50;5005485;28;19940;-95
2023/10/21 06:57:37;;;;;;;;;;;;;;;19.87;44.12;98966.22;5020953;28;20314;-93
2023/10/21 07:00:03;;;;;;;;;;;;;;;20.02;42.36;98970.97;5021070;28;19913;-95
2023/10/21 07:02:31;;;;;;;;;;;;;;;20.21;41.21;98970.41;5005852;28;19948;-95
2023/10/21 07:04:56;;;;;;;;;;;;;;;20.39;40.92;98970.97;5021339;28;20002;-94
2023/10/21 07:07:24;;;;;;;;;;;;;;;20.51;41.66;98965.50;5021289;28;19980;-93
2023/10/21 07:09:53;;;;;;;;;;;;;;;20.63;40.65;98966.63;5018074;28;19917;-94
2023/10/21 07:12:20;;;;;;;;;;;;;;;20.72;41.63;98965.34;5022171;28;19914;-94
2023/10/21 07:14:51;;;;;;;;;;;;;;;20.84;42.20;98966.47;5019533;28;20013;-96
2023/10/21 07:17:26;;;;;;;;;;;;;;;20.91;41.43;98964.72;5022083;28;19921;-92
2023/10/21 07:19:52;;;;;;;;;;;;;;;21.00;41.38;98967.34;4988520;28;19918;-93
2023/10/21 07:22:17;;;;;;;;;;;;;;;21.10;40.46;98964.06;5000115;28;20015;-90
2023/10/21 07:24:43;;;;;;;;;;;;;;;21.19;39.71;98972.94;5020619;28;19951;-95
2023/10/21 07:27:12;;;;;;;;;;;;;;;21.29;39.57;98962.63;5004098;28;19901;-95
2023/10/21 07:29:40;;;;;;;;;;;;;;;21.35;41.61;98963.97;5003937;28;19913;-95
2023/10/21 07:32:07;;;;;;;;;;;;;;;21.44;43.40;98964.66;5001873;28;19914;-93
2023/10/21 07:34:39;;;;;;;;;;;;;;;21.50;43.71;98960.50;5003484;28;19914;-94
2023/10/21 07:37:07;;;;;;;;;;;;;;;21.61;43.25;98966.25;5004434;28;19917;-94
2023/10/21 07:39:32;;;;;;;;;;;;;;;21.73;40.87;98962.66;4985651;28;20394;-95
2023/10/21 07:42:08;;;;;;;;;;;;;;;21.80;40.47;98966.34;5001181;28;19913;-95
2023/10/21 07:44:33;;;;;;;;;;;;;;;21.90;39.34;98967.75;4986649;28;20028;-95
2023/10/21 07:47:05;;;;;;;;;;;;;;;22.05;39.54;98976.34;5002983;28;19921;-94
2023/10/21 07:49:31;;;;;;;;;;;;;;;22.17;36.45;98968.00;4985602;28;19914;-93
2023/10/21 07:51:56;;;;;;;;;;;;;;;22.30;36.08;98965.97;5001387;28;19914;-94
2023/10/21 07:54:24;;;;;;;;;;;;;;;22.53;33.91;98974.34;5000397;28;19920;-94
2023/10/21 07:56:51;;;;;;;;;;;;;;;22.79;33.29;98960.00;5000609;28;19921;-93
2023/10/21 07:59:27;;;;;;;;;;;;;;;22.97;33.99;98963.09;5001004;28;19914;-96
2023/10/21 08:01:54;;;;;;;;;;;;;;;23.13;33.18;98965.81;4986227;28;19913;-95
2023/10/21 08:04:29;;;;;;;;;;;;;;;23.37;32.32;98965.50;5019125;28;20000;-94
2023/10/21 08:07:11;;;;;;;;;;;;;;;23.58;32.94;98970.56;4960086;29;19926;-94
2023/10/21 08:09:38;;;;;;;;;;;;;;;23.69;33.50;98967.22;4960154;29;20377;-96
2023/10/21 08:12:03;;;;;;;;;;;;;;;23.75;33.49;98972.03;4945526;29;19931;-94
2023/10/21 08:14:36;;;;;;;;;;;;;;;23.89;32.18;98973.50;4961403;29;19918;-95
2023/10/21 08:17:04;;;;;;;;;;;;;;;24.10;31.38;98965.56;4963382;29;19914;-94
2023/10/21 08:19:50;;;;;;;;;;;;;;;24.26;31.62;98976.44;4945820;28;19925;-95
2023/10/21 08:22:18;;;;;;;;;;;;;;;24.39;32.04;98968.75;4962796;29;19930;-94
2023/10/21 08:24:50;;;;;;;;;;;;;;;24.50;32.62;98968.94;4961844;29;19926;-95
2023/10/21 08:27:41;;;;;;;;;;;;;;;24.56;32.16;98970.97;4963450;29;19921;-95
2023/10/21 08:41:39;;;;;;;;;;;;;;;25.10;31.27;98968.91;6010826;22;5856271;-96
2023/10/21 08:44:05;;;;;;;;;;;;;;;25.18;31.22;98965.06;6237866;23;19964;-95
2023/10/21 08:46:32;;;;;;;;;;;;;;;25.24;31.42;98965.56;6234595;23;19947;-96
2023/10/21 08:49:00;;;;;;;;;;;;;;;25.34;30.64;98964.09;6206629;23;19911;-95
2023/10/21 08:51:26;;;;;;;;;;;;;;;25.50;29.72;98967.38;6210874;23;19907;-96
2023/10/21 08:53:52;;;;;;;;;;;;;;;25.66;29.98;98967.16;6212054;23;19976;-96
2023/10/21 08:56:17;;;;;;;;;;;;;;;25.78;29.37;98961.34;6211208;23;19899;-95
2023/10/21 08:58:46;;;;;;;;;;;;;;;25.86;29.65;98967.72;6211955;23;19915;-95
2023/10/21 09:01:20;;;;;;;;;;;;;;;25.92;29.48;98960.72;6237157;23;19931;-93
2023/10/21 09:03:45;;;;;;;;;;;;;;;25.94;29.29;98961.13;6236524;23;19908;-95
2023/10/21 09:06:17;;;;;;;;;;;;;;;26.00;28.84;98950.50;6211758;23;19908;-93
2023/10/21 09:08:43;;;;;;;;;;;;;;;26.05;29.05;98963.97;6234984;23;19907;-95
2023/10/21 09:11:15;;;;;;;;;;;;;;;26.14;29.38;98953.38;6210920;23;19952;-94
2023/10/21 09:13:44;;;;;;;;;;;;;;;26.33;28.11;98960.59;6235439;23;19907;-96
2023/10/21 09:16:43;;;;;;;;;;;;;;;26.47;25.85;98951.63;6211146;23;19911;-95
2023/10/21 09:19:18;;;;;;;;;;;;;;;26.61;26.06;98954.50;6241857;23;19908;-94
2023/10/21 09:21:45;;;;;;;;;;;;;;;26.74;24.42;98948.63;6212098;23;19907;-96
2023/10/21 09:24:16;;;;;;;;;;;;;;;26.90;23.07;98943.56;6238291;23;19911;-94
2023/10/21 09:26:42;;;;;;;;;;;;;;;27.01;23.42;98949.91;6234740;23;19915;-95
2023/10/21 09:29:11;;;;;;;;;;;;;;;27.14;22.55;98949.56;6210291;23;20066;-92
2023/10/21 09:31:49;;;;;;;;;;;;;;;27.26;22.31;98945.69;6209871;23;19907;-94
2023/10/21 09:34:31;;;;;;;;;;;;;;;27.38;22.02;98945.31;6234335;23;20271;-94
2023/10/21 09:36:58;;;;;;;;;;;;;;;27.57;21.47;98941.38;6209925;23;19986;-93
2023/10/21 09:39:26;;;;;;;;;;;;;;;27.79;21.03;98937.44;6207001;22;20017;-94
2023/10/21 09:41:52;;;;;;;;;;;;;;;27.98;21.25;98941.03;6201542;23;20349;-94
2023/10/21 09:44:19;;;;;;;;;;;;;;;28.12;21.64;98948.50;6225601;23;19907;-95
2023/10/21 09:46:51;;;;;;;;;;;;;;;28.15;20.96;98944.97;6202554;23;19930;-96
2023/10/21 09:49:23;;;;;;;;;;;;;;;28.22;21.43;98942.16;6203378;23;19919;-93
2023/10/21 09:52:34;;;;;;;;;;;;;;;28.29;20.76;98933.88;6204123;23;19912;-96
2023/10/21 09:55:34;;;;;;;;;;;;;;;28.37;20.06;98923.56;6168461;23;19931;-96
2023/10/21 09:57:59;;;;;;;;;;;;;;;28.47;20.29;98927.47;6190774;23;19908;-94
2023/10/21 10:00:27;;;;;;;;;;;;;;;28.58;19.85;98928.28;6166133;23;19908;-96
2023/10/21 10:02:59;;;;;;;;;;;;;;;28.68;20.50;98924.69;6167176;23;19908;-94
2023/10/21 10:05:53;;;;;;;;;;;;;;;28.73;20.34;98915.94;6203261;23;19914;-95
2023/10/21 10:08:21;;;;;;;;;;;;;;;28.78;20.53;98925.81;6227419;23;19908;-95
2023/10/21 10:11:24;;;;;;;;;;;;;;;28.78;19.85;98921.09;6203134;23;19918;-95
2023/10/21 10:14:06;;;;;;;;;;;;;;;;;;;;;
2023/10/21 10:16:32;;;;;;;;;;;;;;;28.75;19.99;98916.31;6191773;23;20355;-93
2023/10/21 10:19:05;;;;;;;;;;;;;;;28.78;20.03;98918.31;6138966;23;19915;-96
2023/10/21 10:21:32;;;;;;;;;;;;;;;28.80;20.10;98915.94;6141914;23;20451;-95
2023/10/21 10:24:07;;;;;;;;;;;;;;;28.84;19.95;98912.34;6143129;23;19915;-96
2023/10/21 10:26:52;;;;;;;;;;;;;;;28.89;19.82;98912.72;6145536;23;19909;-95
2023/10/21 10:29:29;;;;;;;;;;;;;;;28.92;19.97;98919.44;6167311;23;19912;-96
2023/10/21 10:32:36;;;;;;;;;;;;;;;28.94;20.26;98917.81;6165995;23;20228;-94
2023/10/21 10:35:06;;;;;;;;;;;;;;;28.89;20.54;98909.13;6108507;23;19964;-95
2023/10/21 10:37:37;;;;;;;;;;;;;;;28.87;20.42;98909.56;6108579;23;19987;-96
2023/10/21 10:40:24;;;;;;;;;;;;;;;28.88;20.24;98916.66;6114968;23;19916;-96
2023/10/21 10:42:54;;;;;;;;;;;;;;;28.97;20.18;98917.03;6174715;23;19984;-96
2023/10/21 10:45:43;;;;;;;;;;;;;;;29.00;20.09;98912.66;6192086;23;19909;-96
2023/10/21 10:48:18;;;;;;;;;;;;;;;29.01;20.51;98917.00;6236592;22;19911;-95
2023/10/21 10:50:58;;;;;;;;;;;;;;;29.05;20.64;98914.19;6201115;23;19912;-96
2023/10/21 10:53:45;;;;;;;;;;;;;;;29.11;19.97;98913.41;6198229;23;19907;-96
2023/10/21 10:56:19;;;;;;;;;;;;;;;29.17;19.88;98903.47;6205612;23;19911;-95
2023/10/21 10:59:04;;;;;;;;;;;;;;;;;;;;;
2023/10/21 11:01:30;;;;;;;;;;;;;;;29.18;19.84;98904.28;6225895;23;20002;-96
2023/10/21 11:03:58;;;;;;;;;;;;;;;29.34;19.62;98917.63;6199445;23;19915;-96
2023/10/21 11:09:40;;;;;;;;;;;;;;;29.38;20.86;98910.06;6222631;23;19912;-96
2023/10/21 11:12:46;;;;;;;;;;;;;;;29.36;20.25;98904.13;6178573;23;20255;-96
2023/10/21 11:18:48;;;;;;;;;;;;;;;29.24;20.34;98901.84;6233232;23;20302;-96
2023/10/21 11:27:30;;;;;;;;;;;;;;;29.24;19.86;98899.06;6133850;23;19980;-96
2023/10/21 11:29:59;;;;;;;;;;;;;;;29.25;20.07;98903.44;6157596;23;19920;-96
2023/10/21 11:32:27;;;;;;;;;;;;;;;29.27;20.13;98889.94;6133201;23;19908;-95
2023/10/21 11:34:53;;;;;;;;;;;;;;;29.25;20.22;98903.44;6165358;23;19951;-96
2023/10/21 11:37:19;;;;;;;;;;;;;;;29.27;20.13;98892.72;6196277;23;19911;-96
2023/10/21 11:39:44;;;;;;;;;;;;;;;29.25;20.47;98900.66;6196615;23;19922;-96
2023/10/21 11:42:48;;;;;;;;;;;;;;;;;;;;;
2023/10/21 11:45:50;;;;;;;;;;;;;;;29.33;20.10;98894.66;6257997;22;19923;-96
2023/10/21 11:48:18;;;;;;;;;;;;;;;29.37;20.28;98900.19;6205985;23;19907;-96
2023/10/21 11:50:44;;;;;;;;;;;;;;;29.39;20.01;98886.69;6200088;23;19923;-96
2023/10/21 11:53:32;;;;;;;;;;;;;;;29.42;19.54;98891.41;6225011;23;19911;-95
2023/10/21 12:44:44;;;;;;;;;;;;;;;29.65;19.03;98890.81;6257761;23;19914;-96
2023/10/21 12:47:19;;;;;;;;;;;;;;;29.61;19.45;98896.44;6210786;23;19908;-96
2023/10/21 12:49:47;;;;;;;;;;;;;;;29.61;19.22;98890.06;6239529;23;19919;-96
2023/10/21 12:52:16;;;;;;;;;;;;;;;29.58;19.72;98888.91;6213221;23;19934;-95
2023/10/21 12:55:06;;;;;;;;;;;;;;;29.56;19.70;98893.28;6203435;23;19992;-95
2023/10/21 12:58:06;;;;;;;;;;;;;;;29.55;19.37;98886.16;6213429;23;19907;-96
2023/10/21 13:00:32;;;;;;;;;;;;;;;29.51;19.53;98891.75;6234920;22;19922;-96
2023/10/21 13:03:15;;;;;;;;;;;;;;;29.46;19.52;98892.16;6238106;23;19912;-96
2023/10/21 13:06:06;;;;;;;;;;;;;;;29.46;19.35;98894.94;6214879;23;19934;-96
2023/10/21 13:08:35;;;;;;;;;;;;;;;29.46;19.66;98891.38;6217399;23;19915;-96
2023/10/21 13:20:19;;;;;;;;;;;;;;;29.34;19.81;98898.19;6003712;24;20002;-96
2023/10/21 13:23:13;;;;;;;;;;;;;;;29.29;19.41;98893.09;5957228;24;19922;-96
2023/10/21 13:32:51;;;;;;;;;;;;;;;29.15;19.25;98905.84;5915171;24;19917;-96
2023/10/21 13:42:18;;;;;;;;;;;;;;;29.09;19.50;98904.66;6138772;23;19917;-96
2023/10/21 13:47:57;;;;;;;;;;;;;;;28.98;19.47;98901.19;6139724;23;19920;-94
2023/10/21 13:51:16;;;;;;;;;;;;;;;28.94;19.54;98901.19;6110862;23;19924;-96
2023/10/21 13:53:42;;;;;;;;;;;;;;;28.84;19.77;98904.03;6023503;23;19951;-95
2023/10/21 14:12:04;;;;;;;;;;;;;;;;;;;;;
2023/10/21 14:18:09;;;;;;;;;;;;;;;28.24;20.28;98906.56;6013805;23;19925;-95
2023/10/21 14:48:25;;;;;;;;;;;;;;;27.36;21.76;98925.56;6119766;23;19916;-95
2023/10/21 14:50:51;;;;;;;;;;;;;;;27.27;21.86;98927.91;6106576;23;19918;-93
2023/10/21 14:53:19;;;;;;;;;;;;;;;27.22;21.88;98929.06;6151916;23;19943;-95
2023/10/21 14:56:26;;;;;;;;;;;;;;;;;;;;;
2023/10/21 15:08:47;;;;;;;;;;;;;;;26.76;22.73;98943.50;6131238;23;19912;-95
2023/10/21 15:14:46;;;;;;;;;;;;;;;26.66;22.67;98944.25;6039123;23;19911;-96
2023/10/21 15:17:45;;;;;;;;;;;;;;;;;;;;;
2023/10/21 15:32:27;;;;;;;;;;;;;;;;;;;;;
2023/10/21 15:35:51;;;;;;;;;;;;;;;;;;;;;
2023/10/21 15:44:46;;;;;;;;;;;;;;;25.80;23.79;98977.53;6053871;23;20319;-95
2023/10/21 15:47:45;;;;;;;;;;;;;;;25.75;23.64;98986.13;6062116;23;19920;-96
2023/10/21 15:50:55;;;;;;;;;;;;;;;25.68;23.72;98988.84;6178868;23;19912;-95
2023/10/21 15:53:57;;;;;;;;;;;;;;;;;;;;;
2023/10/21 16:03:19;;;;;;;;;;;;;;;;;;;;;
2023/10/21 16:06:32;;;;;;;;;;;;;;;;;;;;;
2023/10/21 16:12:13;;;;;;;;;;;;;;;24.82;26.11;99018.94;5966667;24;19933;-93
2023/10/21 16:23:48;;;;;;;;;;;;;;;;;;;;;
2023/10/21 16:26:19;;;;;;;;;;;;;;;24.32;28.91;99034.69;6265871;22;19915;-96
2023/10/21 16:29:20;;;;;;;;;;;;;;;24.26;29.27;99028.72;6263307;23;19950;-96
2023/10/21 16:32:04;;;;;;;;;;;;;;;24.24;30.30;99028.28;6256744;23;19915;-96
2023/10/21 16:35:17;;;;;;;;;;;;;;;;;;;;;
2023/10/21 16:38:19;;;;;;;;;;;;;;;;;;;;;
2023/10/21 16:41:03;;;;;;;;;;;;;;;24.14;31.51;99037.16;6170297;23;19935;-96
2023/10/21 16:43:44;;;;;;;;;;;;;;;;;;;;;